Terminal Aerodrome Forecast
Issued by NWS Cleveland, OH

Home | Current Version | Previous Version | Graphics & Text | Print | Product List | Glossary Off
Versions: 1 2 3 4 5 6 7 8 9 10 11 12 13 14 15 16 17 18 19 20 21 22 23 24 25 26 27 28 29 30 31 32 33 34

927
FTUS41 KCLE 210701 AAB
TAFTOL
TAF AMD
KTOL 210701Z 2107/2206 VRB03KT 6SM BR FEW050 BKN250
      TEMPO 2108/2112 3SM BR
     FM211500 17004KT P6SM SCT250
     FM211800 16007KT P6SM SCT045
     FM220000 11003KT P6SM FEW250=

USA.gov is the U.S. government's official web portal to all federal, state and local government web resources and services.